Time;durP1;ratioP1;P1;durP2;ratioP2;P2;SDS_P1;SDS_P2;PMS_P1;PMS_P2;Temp;Humidity;BMP_temperature;BMP_pressure;BME280_temperature;BME280_humidity;BME280_pressure;Samples;Min_cycle;Max_cycle;Signal;HPM_P1;HPM_P2
2024/02/15 00:00:21;;;;;;;84.75;12.80;;;12.20;94.00;;;;;;5066865;28;20044;-49
2024/02/15 00:02:47;;;;;;;65.82;12.55;;;12.20;94.10;;;;;;5049121;28;20029;-50
2024/02/15 00:05:14;;;;;;;83.57;13.25;;;12.10;94.00;;;;;;5066729;28;20029;-50
2024/02/15 00:07:43;;;;;;;59.35;11.95;;;12.10;94.10;;;;;;5066297;28;20071;-50
2024/02/15 00:10:09;;;;;;;63.05;12.30;;;12.10;94.10;;;;;;5065292;28;20036;-50
2024/02/15 00:12:35;;;;;;;68.15;12.45;;;12.10;94.20;;;;;;5065279;28;20032;-50
2024/02/15 00:15:01;;;;;;;64.13;12.18;;;12.00;94.20;;;;;;5065300;28;20021;-50
2024/02/15 00:17:29;;;;;;;55.70;10.45;;;12.00;94.20;;;;;;5066418;28;20045;-50
2024/02/15 00:19:55;;;;;;;73.32;12.45;;;12.00;94.10;;;;;;5065221;28;20029;-48
2024/02/15 00:22:21;;;;;;;59.90;10.77;;;12.00;94.10;;;;;;5065013;28;20047;-50
2024/02/15 00:24:48;;;;;;;72.65;11.43;;;12.00;94.20;;;;;;5066292;28;20036;-49
2024/02/15 00:27:15;;;;;;;58.47;10.18;;;12.00;94.20;;;;;;5066203;28;20029;-48
2024/02/15 00:29:41;;;;;;;70.85;12.75;;;11.90;94.20;;;;;;5066276;28;20044;-50
2024/02/15 00:32:07;;;;;;;63.25;11.20;;;11.90;94.20;;;;;;5065073;28;20033;-50
2024/02/15 00:34:33;;;;;;;57.05;10.82;;;11.90;94.20;;;;;;5064927;28;20136;-50
2024/02/15 00:36:58;;;;;;;64.75;10.82;;;11.90;94.20;;;;;;5064776;28;20029;-50
2024/02/15 00:39:24;;;;;;;54.50;10.68;;;11.80;94.20;;;;;;5064876;28;20025;-50
2024/02/15 00:41:50;;;;;;;54.63;10.20;;;11.80;94.20;;;;;;5066253;28;20048;-50
2024/02/15 00:44:17;;;;;;;50.30;10.50;;;11.80;94.30;;;;;;5048348;28;20514;-50
2024/02/15 00:46:43;;;;;;;49.38;9.90;;;11.80;94.30;;;;;;5065974;28;20048;-50
2024/02/15 00:49:08;;;;;;;50.92;9.68;;;11.70;94.20;;;;;;5065773;28;20052;-50
2024/02/15 00:51:35;;;;;;;54.65;9.75;;;11.70;94.20;;;;;;5067039;28;20025;-50
2024/02/15 00:54:03;;;;;;;45.10;8.45;;;11.70;94.20;;;;;;5070286;28;20053;-50
2024/02/15 00:56:30;;;;;;;62.88;10.13;;;11.70;94.20;;;;;;5069378;28;20017;-50
2024/02/15 00:58:56;;;;;;;51.60;9.35;;;11.70;94.20;;;;;;5070256;28;20053;-50
2024/02/15 01:01:22;;;;;;;49.47;9.57;;;11.60;94.30;;;;;;5070015;28;20021;-50
2024/02/15 01:03:48;;;;;;;60.30;10.27;;;11.60;94.30;;;;;;5068737;28;20033;-49
2024/02/15 01:06:13;;;;;;;40.45;8.95;;;11.60;94.30;;;;;;5069948;28;20088;-50
2024/02/15 01:08:39;;;;;;;54.47;9.27;;;11.50;94.30;;;;;;5070002;28;20064;-50
2024/02/15 01:11:06;;;;;;;57.17;11.45;;;11.50;94.30;;;;;;5068554;28;20032;-50
2024/02/15 01:13:31;;;;;;;45.55;9.07;;;11.50;94.30;;;;;;5052034;28;20025;-50
2024/02/15 01:15:57;;;;;;;39.20;8.60;;;11.50;94.30;;;;;;5068543;28;20056;-50
2024/02/15 01:18:23;;;;;;;37.63;8.57;;;11.50;94.30;;;;;;5068275;28;20114;-50
2024/02/15 01:20:48;;;;;;;41.25;8.73;;;11.50;94.30;;;;;;5069630;28;20114;-49
2024/02/15 01:23:14;;;;;;;32.70;8.07;;;11.50;94.30;;;;;;5069723;28;20091;-50
2024/02/15 01:25:39;;;;;;;41.42;9.32;;;11.40;94.30;;;;;;5069385;28;20059;-50
2024/02/15 01:28:05;;;;;;;42.38;8.60;;;11.40;94.30;;;;;;5069561;28;20037;-49
2024/02/15 01:30:31;;;;;;;43.53;7.70;;;11.40;94.30;;;;;;5069376;28;20066;-49
2024/02/15 01:32:57;;;;;;;39.85;7.70;;;11.40;94.30;;;;;;5051548;28;20089;-50
2024/02/15 01:35:24;;;;;;;39.22;8.48;;;11.40;94.30;;;;;;5068192;28;20104;-50
2024/02/15 01:37:49;;;;;;;29.98;7.80;;;11.30;94.30;;;;;;5069102;28;20033;-50
2024/02/15 01:40:15;;;;;;;42.15;7.85;;;11.30;94.30;;;;;;5067905;28;20075;-49
2024/02/15 01:42:41;;;;;;;29.90;7.55;;;11.30;94.30;;;;;;5067965;28;20029;-50
2024/02/15 01:45:07;;;;;;;34.05;6.88;;;11.30;94.30;;;;;;5067970;28;20151;-50
2024/02/15 01:47:33;;;;;;;36.08;8.23;;;11.30;94.30;;;;;;5069013;28;20067;-50
2024/02/15 01:49:58;;;;;;;32.60;7.15;;;11.20;94.40;;;;;;5051306;28;20029;-50
2024/02/15 01:52:24;;;;;;;34.45;7.97;;;11.20;94.40;;;;;;5067864;28;20017;-50
2024/02/15 01:54:53;;;;;;;33.60;7.13;;;11.20;94.50;;;;;;5051116;28;20539;-50
2024/02/15 01:57:20;;;;;;;39.08;7.50;;;11.20;94.50;;;;;;5067706;28;20017;-49
2024/02/15 01:59:46;;;;;;;30.30;7.10;;;11.10;94.50;;;;;;5067553;28;20029;-50
2024/02/15 02:02:13;;;;;;;33.78;6.82;;;11.10;94.60;;;;;;5067205;28;20031;-50
2024/02/15 02:04:38;;;;;;;32.42;7.40;;;11.10;94.60;;;;;;5050909;28;20123;-50
2024/02/15 02:07:04;;;;;;;34.33;7.15;;;11.00;94.60;;;;;;5067463;28;20032;-50
2024/02/15 02:09:29;;;;;;;41.83;7.65;;;11.00;94.50;;;;;;5067385;28;20041;-50
2024/02/15 02:11:55;;;;;;;27.20;6.50;;;11.00;94.50;;;;;;5067455;28;20029;-50
2024/02/15 02:14:21;;;;;;;36.15;6.82;;;11.00;94.50;;;;;;5067492;28;20033;-49
2024/02/15 02:16:47;;;;;;;24.38;6.55;;;11.00;94.50;;;;;;5067358;28;20021;-49
2024/02/15 02:19:12;;;;;;;28.10;6.57;;;11.00;94.50;;;;;;5068750;28;20088;-50
2024/02/15 02:21:39;;;;;;;26.08;7.03;;;11.00;94.50;;;;;;5050436;28;20029;-50
2024/02/15 02:24:07;;;;;;;27.40;6.53;;;10.90;94.50;;;;;;5067055;28;20040;-50
2024/02/15 02:26:33;;;;;;;28.08;6.47;;;10.90;94.50;;;;;;5067279;28;20021;-50
2024/02/15 02:28:59;;;;;;;23.63;6.30;;;10.90;94.50;;;;;;5050598;28;20029;-50
2024/02/15 02:31:24;;;;;;;26.42;6.43;;;10.90;94.50;;;;;;5068322;28;20029;-50
2024/02/15 02:33:52;;;;;;;23.27;5.85;;;10.90;94.50;;;;;;5068387;28;20064;-50
2024/02/15 02:36:18;;;;;;;26.58;6.43;;;10.80;94.50;;;;;;5068056;28;20524;-50
2024/02/15 02:38:49;;;;;;;25.45;5.93;;;10.80;94.50;;;;;;5066749;28;20025;-50
2024/02/15 02:41:15;;;;;;;22.73;5.93;;;10.80;94.50;;;;;;5067534;28;20029;-50
2024/02/15 02:43:41;;;;;;;23.00;6.38;;;10.80;94.50;;;;;;5066906;28;20300;-50
2024/02/15 02:46:10;;;;;;;27.33;6.18;;;10.70;94.50;;;;;;5067910;28;20039;-50
2024/02/15 02:48:36;;;;;;;29.33;5.82;;;10.70;94.50;;;;;;5066874;28;20107;-50
2024/02/15 02:51:02;;;;;;;23.13;6.10;;;10.70;94.60;;;;;;5066651;28;20389;-50
2024/02/15 02:53:28;;;;;;;25.27;5.25;;;10.70;94.60;;;;;;5066597;28;20033;-49
2024/02/15 02:55:56;;;;;;;17.33;5.18;;;10.70;94.60;;;;;;5067821;28;20035;-50
2024/02/15 02:58:22;;;;;;;26.90;5.53;;;10.60;94.60;;;;;;5066631;28;20512;-50
2024/02/15 03:00:49;;;;;;;22.08;5.65;;;10.60;94.60;;;;;;5066358;28;20536;-50
2024/02/15 03:03:15;;;;;;;21.33;5.45;;;10.60;94.70;;;;;;5067784;28;20036;-49
2024/02/15 03:05:41;;;;;;;22.55;5.63;;;10.60;94.70;;;;;;5066462;28;20028;-50
2024/02/15 03:08:08;;;;;;;24.98;5.25;;;10.60;94.70;;;;;;5067587;28;20033;-50
2024/02/15 03:10:34;;;;;;;23.33;4.97;;;10.50;94.70;;;;;;5050020;28;20036;-50
2024/02/15 03:12:59;;;;;;;17.45;4.93;;;10.60;94.70;;;;;;5067608;28;20025;-50
2024/02/15 03:15:25;;;;;;;20.45;5.32;;;10.50;94.70;;;;;;5066453;28;20370;-50
2024/02/15 03:17:51;;;;;;;26.90;5.90;;;10.50;94.70;;;;;;5067383;28;20112;-50
2024/02/15 03:20:25;;;;;;;32.20;6.07;;;10.50;94.70;;;;;;5067509;28;20100;-50
2024/02/15 03:22:52;;;;;;;18.15;5.65;;;10.50;94.70;;;;;;5066305;28;20071;-50
2024/02/15 03:25:17;;;;;;;17.05;4.90;;;10.50;94.70;;;;;;5067162;28;20025;-50
2024/02/15 03:27:43;;;;;;;20.20;5.78;;;10.50;94.70;;;;;;5065955;28;20033;-50
2024/02/15 03:30:10;;;;;;;16.25;4.43;;;10.40;94.70;;;;;;5067057;28;20029;-50
2024/02/15 03:32:36;;;;;;;17.45;5.13;;;10.40;94.70;;;;;;5065928;28;20029;-50
2024/02/15 03:35:02;;;;;;;14.82;5.00;;;10.40;94.70;;;;;;5067228;28;20033;-50
2024/02/15 03:37:28;;;;;;;24.00;5.05;;;10.40;94.70;;;;;;5067034;28;20097;-49
2024/02/15 03:39:54;;;;;;;20.08;5.03;;;10.40;94.70;;;;;;5065985;28;20029;-50
2024/02/15 03:42:20;;;;;;;17.92;5.10;;;10.30;94.70;;;;;;5065574;28;20370;-50
2024/02/15 03:44:47;;;;;;;23.25;4.75;;;10.30;94.70;;;;;;5065690;28;20039;-50
2024/02/15 03:47:14;;;;;;;12.10;4.75;;;10.30;94.80;;;;;;5065790;28;20100;-50
2024/02/15 03:49:42;;;;;;;17.52;4.63;;;10.30;94.80;;;;;;5049018;28;20119;-50
2024/02/15 03:52:10;;;;;;;17.08;4.50;;;10.30;94.80;;;;;;5065702;28;20025;-50
2024/02/15 03:54:36;;;;;;;12.50;4.13;;;10.30;94.80;;;;;;5066957;28;20047;-50
2024/02/15 03:57:01;;;;;;;13.18;4.30;;;10.30;94.90;;;;;;5066764;28;20037;-49
2024/02/15 03:59:27;;;;;;;21.15;4.50;;;10.20;94.90;;;;;;5067214;28;20100;-50
2024/02/15 04:01:53;;;;;;;24.17;4.63;;;10.20;94.90;;;;;;5065271;28;20024;-50
2024/02/15 04:04:21;;;;;;;16.17;5.50;;;10.10;94.90;;;;;;5066631;28;20108;-50
2024/02/15 04:06:47;;;;;;;15.05;4.65;;;10.10;94.80;;;;;;5065382;28;20036;-50
2024/02/15 04:09:13;;;;;;;14.10;3.97;;;10.10;94.80;;;;;;5066651;28;20029;-50
2024/02/15 04:11:38;;;;;;;16.38;4.65;;;10.10;94.90;;;;;;5065057;28;20024;-50
2024/02/15 04:14:04;;;;;;;10.80;3.72;;;10.10;94.90;;;;;;5065334;28;20028;-50
2024/02/15 04:16:31;;;;;;;18.45;3.97;;;10.10;94.90;;;;;;5066380;28;20025;-50
2024/02/15 04:18:59;;;;;;;12.85;4.00;;;10.10;94.90;;;;;;5066512;28;20025;-50
2024/02/15 04:21:27;;;;;;;14.20;3.85;;;10.00;94.90;;;;;;5065078;28;20112;-50
2024/02/15 04:23:53;;;;;;;17.05;4.35;;;10.00;95.00;;;;;;5065082;28;20473;-50
2024/02/15 04:26:19;;;;;;;11.95;4.38;;;10.00;95.00;;;;;;5064959;28;20052;-50
2024/02/15 04:28:48;;;;;;;12.82;3.92;;;10.00;95.00;;;;;;5064811;28;20025;-50
2024/02/15 04:31:15;;;;;;;13.90;4.03;;;10.00;95.00;;;;;;5066116;28;20036;-50
2024/02/15 04:33:41;;;;;;;14.13;4.28;;;10.00;95.00;;;;;;5066140;28;20047;-50
2024/02/15 04:36:06;;;;;;;13.30;4.30;;;10.00;95.00;;;;;;5064556;28;20036;-50
2024/02/15 04:38:34;;;;;;;11.85;3.78;;;9.90;94.90;;;;;;5066256;28;20025;-50
2024/02/15 04:41:00;;;;;;;16.95;3.75;;;9.90;95.00;;;;;;5065973;28;20047;-50
2024/02/15 04:43:26;;;;;;;9.45;3.50;;;9.90;95.00;;;;;;5066126;28;20036;-50
2024/02/15 04:45:52;;;;;;;14.13;4.10;;;9.90;95.00;;;;;;5066056;28;20542;-50
2024/02/15 04:48:19;;;;;;;9.68;3.70;;;9.90;95.00;;;;;;5064660;28;20060;-50
2024/02/15 04:50:45;;;;;;;15.68;4.50;;;9.90;95.00;;;;;;5065833;28;20531;-50
2024/02/15 04:53:11;;;;;;;10.90;4.15;;;9.80;95.00;;;;;;5064720;28;20037;-50
2024/02/15 04:55:37;;;;;;;11.27;3.75;;;9.80;95.00;;;;;;5064682;28;20028;-50
2024/02/15 04:58:04;;;;;;;12.98;3.90;;;9.80;95.00;;;;;;5066008;28;20033;-50
2024/02/15 05:00:30;;;;;;;9.57;3.67;;;9.80;95.00;;;;;;5064914;28;20025;-50
2024/02/15 05:02:55;;;;;;;12.07;3.85;;;9.80;95.00;;;;;;5064770;28;20417;-50
2024/02/15 05:05:21;;;;;;;11.50;3.83;;;9.80;95.00;;;;;;5066030;28;20033;-50
2024/02/15 05:07:48;;;;;;;10.43;3.65;;;9.70;95.10;;;;;;5048014;28;20033;-49
2024/02/15 05:10:15;;;;;;;10.55;3.45;;;9.70;95.10;;;;;;5065884;28;20092;-50
2024/02/15 05:12:42;;;;;;;7.25;3.17;;;9.70;95.10;;;;;;5064574;28;20025;-50
2024/02/15 05:15:11;;;;;;;12.40;3.42;;;9.70;95.20;;;;;;5064475;28;20017;-50
2024/02/15 05:17:40;;;;;;;13.40;3.95;;;9.70;95.20;;;;;;5064641;28;20048;-50
2024/02/15 05:22:43;;;;;;;9.90;3.30;;;9.60;95.20;;;;;;5061379;28;20064;-89
2024/02/15 05:25:09;;;;;;;12.93;3.67;;;9.60;95.10;;;;;;5013967;28;20037;-88
2024/02/15 05:32:45;;;;;;;10.55;2.97;;;9.60;95.20;;;;;;5575714;22;20048;-49
2024/02/15 05:35:11;;;;;;;12.02;3.88;;;9.60;95.10;;;;;;5065671;28;20471;-48
2024/02/15 05:37:37;;;;;;;8.05;3.33;;;9.60;95.10;;;;;;5064935;28;20037;-49
2024/02/15 05:40:03;;;;;;;8.80;3.20;;;9.50;95.10;;;;;;5051709;28;20025;-48
2024/02/15 05:42:29;;;;;;;13.25;3.33;;;9.50;95.40;;;;;;5051329;28;20406;-48
2024/02/15 05:44:55;;;;;;;8.98;3.33;;;9.50;95.10;;;;;;5067815;28;20084;-48
2024/02/15 05:47:21;;;;;;;9.75;3.00;;;9.50;95.20;;;;;;5069122;28;20041;-48
2024/02/15 05:49:47;;;;;;;14.85;3.63;;;9.50;95.10;;;;;;5051096;28;20037;-48
2024/02/15 05:52:13;;;;;;;19.95;3.72;;;9.50;95.10;;;;;;5067764;28;20036;-49
2024/02/15 05:54:41;;;;;;;14.05;3.90;;;9.50;95.10;;;;;;5067679;28;20017;-49
2024/02/15 05:57:07;;;;;;;16.95;3.90;;;9.50;95.10;;;;;;5067669;28;20041;-49
2024/02/15 05:59:32;;;;;;;12.90;4.07;;;9.50;95.10;;;;;;5051517;28;20048;-49
2024/02/15 06:01:58;;;;;;;20.73;4.20;;;9.50;95.20;;;;;;5067580;28;20040;-48
2024/02/15 06:04:23;;;;;;;16.73;4.60;;;9.50;95.20;;;;;;5068755;28;20021;-49
2024/02/15 06:06:50;;;;;;;16.73;4.22;;;9.40;95.20;;;;;;5068757;28;20044;-48
2024/02/15 06:09:16;;;;;;;25.02;4.30;;;9.40;95.30;;;;;;5067594;28;20024;-48
2024/02/15 06:11:44;;;;;;;25.08;4.90;;;9.40;95.30;;;;;;5068555;28;20033;-49
2024/02/15 06:14:09;;;;;;;39.28;6.45;;;9.40;95.30;;;;;;5068589;28;20017;-48
2024/02/15 06:16:43;;;;;;;29.30;5.88;;;9.40;95.30;;;;;;5067252;28;20028;-49
2024/02/15 06:19:08;;;;;;;33.47;5.97;;;9.40;95.30;;;;;;5067526;28;20020;-49
2024/02/15 06:21:34;;;;;;;34.72;5.88;;;9.40;95.40;;;;;;5050847;28;20021;-48
2024/02/15 06:23:59;;;;;;;34.80;6.13;;;9.40;95.40;;;;;;5055352;28;20032;-48
2024/02/15 06:26:25;;;;;;;25.45;5.25;;;9.40;95.40;;;;;;5046863;28;20022;-51
2024/02/15 06:39:48;;;;;;;81.70;10.07;;;9.40;95.30;;;;;;5048132;28;20048;-48
2024/02/15 06:42:16;;;;;;;63.35;9.05;;;9.40;95.40;;;;;;5048000;28;20394;-48
2024/02/15 06:44:45;;;;;;;43.55;8.55;;;9.30;95.40;;;;;;5046834;28;20040;-48
2024/02/15 06:47:11;;;;;;;44.03;7.38;;;9.30;95.50;;;;;;5046669;28;20038;-48
2024/02/15 06:49:41;;;;;;;31.98;6.82;;;9.30;95.50;;;;;;5047894;28;20109;-48
2024/02/15 06:52:07;;;;;;;35.88;7.72;;;9.30;95.60;;;;;;5046792;28;20025;-48
2024/02/15 06:54:35;;;;;;;48.17;8.13;;;9.30;95.70;;;;;;5046477;28;20021;-48
2024/02/15 06:57:04;;;;;;;44.80;8.77;;;9.30;95.80;;;;;;5046686;28;20079;-48
2024/02/15 06:59:31;;;;;;;43.65;7.63;;;9.30;95.80;;;;;;5030640;28;20029;-49
2024/02/15 07:01:58;;;;;;;58.78;8.43;;;9.30;95.80;;;;;;5044561;28;20304;-48
2024/02/15 07:04:25;;;;;;;45.30;7.70;;;9.30;95.90;;;;;;5030046;28;20476;-48
2024/02/15 07:06:51;;;;;;;47.20;7.90;;;9.30;95.90;;;;;;5029686;28;20033;-48
2024/02/15 07:09:20;;;;;;;62.78;8.15;;;9.30;95.80;;;;;;5046252;28;20108;-48
2024/02/15 07:11:46;;;;;;;34.20;7.25;;;9.40;95.80;;;;;;5030321;28;20061;-48
2024/02/15 07:14:12;;;;;;;45.45;7.97;;;9.30;95.70;;;;;;5026461;28;20022;-48
2024/02/15 07:16:38;;;;;;;39.05;7.50;;;9.30;95.70;;;;;;5010169;28;20053;-48
2024/02/15 07:19:03;;;;;;;39.10;7.43;;;9.30;95.70;;;;;;5027584;28;20087;-51
2024/02/15 07:21:31;;;;;;;30.52;6.45;;;9.30;95.70;;;;;;5026266;28;20036;-48
2024/02/15 07:23:56;;;;;;;26.42;6.43;;;9.30;95.70;;;;;;5010120;28;20022;-48
2024/02/15 07:26:26;;;;;;;29.58;6.88;;;9.30;95.70;;;;;;5026000;28;20045;-48
2024/02/15 07:28:54;;;;;;;26.27;6.25;;;9.30;95.60;;;;;;5027610;28;20056;-48
2024/02/15 07:31:23;;;;;;;36.67;6.65;;;9.30;95.60;;;;;;5043366;28;20037;-50
2024/02/15 07:33:51;;;;;;;26.17;7.00;;;9.30;95.60;;;;;;5045736;28;20029;-48
2024/02/15 07:36:23;;;;;;;41.78;8.05;;;9.30;95.90;;;;;;5033929;28;20022;-48
2024/02/15 07:38:49;;;;;;;34.28;6.82;;;9.30;95.60;;;;;;5015920;28;20049;-48
2024/02/15 07:41:17;;;;;;;31.10;6.60;;;9.30;95.60;;;;;;5036158;28;20497;-48
2024/02/15 07:43:44;;;;;;;26.75;5.75;;;9.30;95.60;;;;;;5045066;28;20034;-48
2024/02/15 07:46:13;;;;;;;28.02;6.13;;;9.30;95.60;;;;;;5041900;28;20025;-48
2024/02/15 07:48:39;;;;;;;37.17;6.15;;;9.30;95.60;;;;;;5028918;28;20125;-48
2024/02/15 07:51:09;;;;;;;29.92;6.90;;;9.30;95.60;;;;;;5030768;28;20034;-48
2024/02/15 07:53:35;;;;;;;24.77;6.20;;;9.30;95.60;;;;;;5043064;28;20029;-48
2024/02/15 07:56:00;;;;;;;31.63;6.57;;;9.20;95.70;;;;;;5045227;28;20028;-48
2024/02/15 07:58:29;;;;;;;28.27;6.07;;;9.30;95.70;;;;;;5037950;28;20475;-48
2024/02/15 08:00:56;;;;;;;25.55;7.32;;;9.20;95.60;;;;;;5043003;28;20029;-51
2024/02/15 08:03:21;;;;;;;36.42;5.70;;;9.30;95.60;;;;;;5040857;28;20038;-48
2024/02/15 08:05:47;;;;;;;25.48;6.50;;;9.30;95.60;;;;;;5028898;28;20546;-48
2024/02/15 08:08:13;;;;;;;19.85;6.60;;;9.30;95.60;;;;;;5038720;28;20036;-48
2024/02/15 08:10:39;;;;;;;23.15;5.88;;;9.30;95.60;;;;;;5037119;28;20025;-48
2024/02/15 08:13:05;;;;;;;19.25;5.53;;;9.30;95.60;;;;;;5041921;28;20085;-48
2024/02/15 08:15:30;;;;;;;21.80;5.18;;;9.30;95.60;;;;;;5024231;28;20021;-48
2024/02/15 08:17:56;;;;;;;24.38;6.43;;;9.30;95.60;;;;;;5039956;28;20057;-49
2024/02/15 08:20:22;;;;;;;25.85;5.68;;;9.30;95.60;;;;;;5043576;28;20032;-48
2024/02/15 08:22:47;;;;;;;17.33;5.70;;;9.30;95.60;;;;;;5044695;28;20037;-48
2024/02/15 08:25:15;;;;;;;31.25;5.80;;;9.30;95.50;;;;;;5034066;28;20032;-49
2024/02/15 08:27:44;;;;;;;20.48;5.03;;;9.30;95.50;;;;;;5035309;28;20108;-48
2024/02/15 08:30:11;;;;;;;27.98;6.75;;;9.30;95.50;;;;;;5009583;28;20116;-48
2024/02/15 08:32:41;;;;;;;22.77;6.13;;;9.30;95.50;;;;;;5039581;28;20030;-48
2024/02/15 08:35:08;;;;;;;30.02;6.32;;;9.40;95.50;;;;;;5025201;28;20545;-48
2024/02/15 08:37:34;;;;;;;24.90;6.15;;;9.40;95.50;;;;;;5044979;28;20041;-48
2024/02/15 08:40:14;;;;;;;28.13;5.70;;;9.40;95.50;;;;;;5028819;28;20029;-48
2024/02/15 08:42:43;;;;;;;27.35;5.82;;;9.40;95.50;;;;;;5029869;28;20038;-48
2024/02/15 08:45:10;;;;;;;15.45;5.85;;;9.40;95.50;;;;;;5039374;28;20044;-48
2024/02/15 08:47:39;;;;;;;23.80;5.35;;;9.40;95.50;;;;;;5035837;28;20469;-48
2024/02/15 08:50:06;;;;;;;16.70;5.35;;;9.40;95.50;;;;;;5025894;28;20029;-48
2024/02/15 08:52:31;;;;;;;19.45;5.38;;;9.50;95.60;;;;;;5044313;28;20033;-48
2024/02/15 08:54:59;;;;;;;23.30;5.20;;;9.50;95.60;;;;;;5037421;28;20530;-48
2024/02/15 08:57:24;;;;;;;22.50;5.07;;;9.50;95.60;;;;;;5037261;28;20033;-48
2024/02/15 08:59:51;;;;;;;23.90;5.43;;;9.50;95.70;;;;;;5039451;28;20550;-48
2024/02/15 09:02:17;;;;;;;20.83;5.57;;;9.50;95.60;;;;;;5039947;28;20034;-48
2024/02/15 09:04:43;;;;;;;30.25;6.18;;;9.50;95.60;;;;;;5042035;28;20176;-48
2024/02/15 09:07:09;;;;;;;23.63;5.65;;;9.50;95.60;;;;;;5044791;28;20101;-48
2024/02/15 09:09:36;;;;;;;22.48;6.18;;;9.60;95.60;;;;;;5043291;28;20034;-49
2024/02/15 09:12:05;;;;;;;41.17;6.88;;;9.60;95.60;;;;;;5028748;28;20089;-48
2024/02/15 09:14:36;;;;;;;28.77;5.82;;;9.60;95.70;;;;;;5044335;28;20044;-48
2024/02/15 09:17:07;;;;;;;23.67;5.75;;;9.60;95.70;;;;;;5040056;28;20025;-48
2024/02/15 09:19:32;;;;;;;31.83;6.40;;;9.70;95.70;;;;;;5038984;28;20022;-48
2024/02/15 09:21:58;;;;;;;40.38;6.00;;;9.70;95.70;;;;;;5033832;28;20057;-48
2024/02/15 09:24:25;;;;;;;35.60;7.25;;;9.70;95.80;;;;;;5044033;28;20504;-48
2024/02/15 09:26:52;;;;;;;47.90;7.47;;;9.70;95.70;;;;;;5048342;28;20041;-48
2024/02/15 09:29:19;;;;;;;28.60;6.47;;;9.70;95.70;;;;;;5045898;28;20030;-48
2024/02/15 09:31:47;;;;;;;29.42;6.82;;;9.80;95.80;;;;;;5046982;28;20089;-48
2024/02/15 09:34:13;;;;;;;28.40;6.03;;;9.80;95.70;;;;;;5047707;28;20032;-48
2024/02/15 09:36:38;;;;;;;24.83;6.97;;;9.80;95.70;;;;;;5045097;28;20100;-49
2024/02/15 09:39:04;;;;;;;34.50;6.18;;;9.80;95.70;;;;;;5046057;28;20032;-48
2024/02/15 09:41:30;;;;;;;68.20;8.98;;;9.90;95.80;;;;;;5047164;28;20490;-48
2024/02/15 09:43:57;;;;;;;29.30;7.25;;;9.90;95.90;;;;;;5030814;28;20095;-48
2024/02/15 09:46:22;;;;;;;53.40;7.95;;;9.90;95.80;;;;;;5047678;28;20030;-48
2024/02/15 09:48:50;;;;;;;52.40;8.73;;;10.00;95.80;;;;;;5047201;28;20083;-48
2024/02/15 09:51:18;;;;;;;58.88;10.13;;;10.00;95.90;;;;;;5031035;28;20467;-48
2024/02/15 09:53:44;;;;;;;59.80;9.00;;;10.10;96.10;;;;;;5047342;28;20364;-49
2024/02/15 09:56:10;;;;;;;55.80;9.10;;;10.00;96.10;;;;;;5046755;28;20021;-49
2024/02/15 09:58:36;;;;;;;61.65;8.85;;;10.10;96.20;;;;;;5030265;28;20044;-48
2024/02/15 10:01:09;;;;;;;32.50;6.45;;;10.10;96.20;;;;;;5008535;28;20034;-48
2024/02/15 10:03:36;;;;;;;47.80;7.57;;;10.20;95.90;;;;;;5041243;28;20038;-48
2024/02/15 10:06:01;;;;;;;35.20;7.10;;;10.20;95.80;;;;;;5020742;28;20029;-48
2024/02/15 10:08:27;;;;;;;69.35;10.00;;;10.20;95.50;;;;;;5046205;28;20118;-48
2024/02/15 10:11:08;;;;;;;68.10;9.48;;;10.30;95.50;;;;;;5027426;28;20033;-49
2024/02/15 10:13:34;;;;;;;70.88;9.60;;;10.30;95.70;;;;;;5044781;28;20030;-48
2024/02/15 10:16:09;;;;;;;82.80;11.00;;;10.30;95.70;;;;;;5045123;28;20108;-48
2024/02/15 10:18:35;;;;;;;87.85;10.95;;;10.30;95.70;;;;;;5044987;28;20543;-48
2024/02/15 10:21:00;;;;;;;62.90;9.57;;;10.40;95.90;;;;;;5046253;28;20083;-48
2024/02/15 10:23:26;;;;;;;78.43;10.68;;;10.40;95.70;;;;;;5043162;28;20384;-48
2024/02/15 10:25:55;;;;;;;63.47;9.95;;;10.40;95.70;;;;;;5015122;28;20049;-48
2024/02/15 10:28:23;;;;;;;40.28;7.10;;;10.50;95.80;;;;;;5030734;28;20030;-48
2024/02/15 10:30:50;;;;;;;44.10;8.13;;;10.50;95.40;;;;;;5043771;28;20026;-49
2024/02/15 10:33:34;;;;;;;40.63;7.65;;;10.50;95.20;;;;;;5040039;28;20037;-48
2024/02/15 10:36:13;;;;;;;55.30;9.70;;;10.50;95.30;;;;;;5037736;28;20041;-48
2024/02/15 10:38:38;;;;;;;57.42;9.60;;;10.60;95.30;;;;;;5049484;28;20093;-49
2024/02/15 10:41:11;;;;;;;68.35;9.40;;;10.60;95.30;;;;;;5045206;28;20041;-48
2024/02/15 10:43:40;;;;;;;73.05;9.70;;;10.60;95.50;;;;;;5045821;28;20052;-48
2024/02/15 10:46:09;;;;;;;107.40;12.38;;;10.60;95.50;;;;;;5044333;28;20025;-48
2024/02/15 10:48:35;;;;;;;113.10;12.38;;;10.70;95.60;;;;;;5044865;28;20037;-49
2024/02/15 10:51:11;;;;;;;86.72;13.75;;;10.70;95.50;;;;;;5045799;28;20055;-49
2024/02/15 10:53:47;;;;;;;112.13;15.55;;;10.70;95.70;;;;;;5013343;28;20056;-48
2024/02/15 10:56:19;;;;;;;181.38;20.08;;;10.70;95.70;;;;;;5030622;28;20032;-51
2024/02/15 10:58:50;;;;;;;248.75;26.00;;;10.80;95.80;;;;;;5046298;28;20064;-49
2024/02/15 11:01:18;;;;;;;159.20;18.63;;;10.80;95.90;;;;;;5036615;28;20035;-49
2024/02/15 11:03:56;;;;;;;147.80;18.35;;;10.90;95.90;;;;;;5041371;28;20044;-49
2024/02/15 11:06:21;;;;;;;108.55;14.20;;;10.90;95.80;;;;;;5028816;28;20451;-50
2024/02/15 11:08:48;;;;;;;105.25;13.50;;;10.90;95.60;;;;;;5045432;28;20059;-50
2024/02/15 11:11:14;;;;;;;144.48;15.93;;;10.90;95.50;;;;;;5027849;28;20129;-50
2024/02/15 11:13:42;;;;;;;189.85;19.10;;;11.00;95.40;;;;;;5027451;28;20448;-50
2024/02/15 11:16:08;;;;;;;125.90;16.02;;;11.00;95.50;;;;;;5029132;28;20451;-49
2024/02/15 11:18:48;;;;;;;124.97;15.32;;;11.00;95.50;;;;;;5024897;28;20033;-49
2024/02/15 11:21:15;;;;;;;138.52;15.30;;;11.00;95.50;;;;;;5044087;28;20477;-49
2024/02/15 11:23:41;;;;;;;250.40;26.83;;;11.00;95.70;;;;;;5039419;28;20042;-49
2024/02/15 11:26:42;;;;;;;121.38;14.57;;;11.10;95.40;;;;;;5025679;28;20033;-50
2024/02/15 11:29:08;;;;;;;114.25;16.48;;;11.10;95.30;;;;;;5040242;28;20049;-49
2024/02/15 11:31:53;;;;;;;121.15;15.52;;;11.20;95.30;;;;;;5040903;28;20025;-49
2024/02/15 11:34:45;;;;;;;150.60;18.75;;;11.20;95.30;;;;;;5046484;28;20093;-50
2024/02/15 11:40:18;;;;;;;110.32;14.85;;;11.20;95.30;;;;;;5040480;28;20037;-50
2024/02/15 11:42:45;;;;;;;125.60;14.70;;;11.30;95.20;;;;;;5045622;28;20083;-50
2024/02/15 11:45:11;;;;;;;103.70;14.10;;;11.30;95.20;;;;;;5046886;28;20040;-50
2024/02/15 11:47:48;;;;;;;123.03;14.75;;;11.30;95.10;;;;;;5042682;28;20044;-50
2024/02/15 11:50:17;;;;;;;123.40;15.05;;;11.30;95.20;;;;;;5045307;28;20033;-50
2024/02/15 11:52:43;;;;;;;105.18;14.45;;;11.40;95.20;;;;;;5012583;28;20029;-50
2024/02/15 11:55:15;;;;;;;123.90;15.75;;;11.40;95.10;;;;;;5044526;28;20032;-50
2024/02/15 11:57:50;;;;;;;128.05;14.80;;;11.40;95.10;;;;;;5018532;28;20034;-50
2024/02/15 12:19:49;;;;;;;109.47;15.05;;;11.60;94.90;;;;;;5044837;28;20036;-50
2024/02/15 12:22:15;;;;;;;133.55;18.90;;;11.70;94.70;;;;;;5027951;28;20113;-50
2024/02/15 12:24:40;;;;;;;116.30;14.05;;;11.70;94.70;;;;;;5027385;28;20026;-50
2024/02/15 12:27:06;;;;;;;127.38;17.65;;;11.70;94.70;;;;;;5026216;28;20030;-50
2024/02/15 12:29:32;;;;;;;95.78;12.75;;;11.80;94.60;;;;;;5041634;28;20125;-50
2024/02/15 12:31:58;;;;;;;68.22;9.93;;;11.80;94.50;;;;;;5037512;28;20093;-50
2024/02/15 12:34:27;;;;;;;52.55;9.27;;;11.80;94.70;;;;;;5041164;28;20014;-50
2024/02/15 12:37:06;;;;;;;51.65;7.95;;;11.80;94.30;;;;;;5041458;28;20057;-50
2024/02/15 12:39:31;;;;;;;46.38;8.07;;;11.90;94.10;;;;;;5033834;28;20025;-50
2024/02/15 12:41:57;;;;;;;40.70;7.28;;;11.90;94.00;;;;;;5035826;28;20029;-50
2024/02/15 12:44:24;;;;;;;55.50;8.35;;;11.90;94.00;;;;;;5042793;28;20028;-50
2024/02/15 12:46:56;;;;;;;38.75;5.97;;;12.00;93.90;;;;;;5034504;28;20026;-50
2024/02/15 12:49:21;;;;;;;40.95;6.18;;;12.00;93.80;;;;;;5045032;28;20085;-50
2024/02/15 12:51:54;;;;;;;45.13;6.38;;;12.00;93.60;;;;;;5047341;28;20467;-50
2024/02/15 12:54:23;;;;;;;35.10;6.30;;;12.10;93.60;;;;;;5055568;28;20029;-50
2024/02/15 12:56:51;;;;;;;30.90;5.63;;;12.10;93.30;;;;;;5047101;28;20034;-50
2024/02/15 12:59:19;;;;;;;33.30;7.55;;;12.20;93.20;;;;;;5045928;28;20022;-50
2024/02/15 13:01:46;;;;;;;59.00;7.38;;;12.20;93.10;;;;;;5040086;28;20074;-50
2024/02/15 13:04:24;;;;;;;46.10;6.35;;;12.20;93.10;;;;;;5011749;28;20021;-50
2024/02/15 13:06:53;;;;;;;57.90;9.00;;;12.20;93.00;;;;;;5025692;28;20070;-50
2024/02/15 13:09:18;;;;;;;43.83;6.68;;;12.30;93.10;;;;;;5045204;28;20026;-50
2024/02/15 13:11:45;;;;;;;37.47;6.03;;;12.30;93.10;;;;;;5037157;28;20029;-50
2024/02/15 13:14:11;;;;;;;37.33;5.90;;;12.30;93.10;;;;;;5028309;28;20101;-50
2024/02/15 13:16:37;;;;;;;41.30;7.18;;;12.40;93.10;;;;;;5046097;28;20041;-50
2024/02/15 13:19:03;;;;;;;43.45;6.97;;;12.40;93.00;;;;;;5035156;28;20036;-50